createdAt,value
2023-05-06T00:01:58.471Z,5.07
2023-05-06T00:04:25.243Z,4.83
2023-05-06T00:06:51.907Z,5.43
2023-05-06T00:09:18.642Z,4.30
2023-05-06T00:11:46.060Z,4.73
2023-05-06T00:14:12.828Z,4.57
2023-05-06T00:16:39.561Z,5.73
2023-05-06T00:32:09.156Z,7.05
2023-05-06T00:34:35.888Z,4.88
2023-05-06T00:37:02.527Z,4.75
2023-05-06T00:39:30.200Z,4.43
2023-05-06T00:42:02.559Z,5.33
2023-05-06T00:44:30.242Z,4.60
2023-05-06T00:46:57.376Z,4.70
2023-05-06T00:49:24.232Z,5.90
2023-05-06T00:51:54.139Z,4.70
2023-05-06T00:54:21.705Z,3.77
2023-05-06T00:56:48.524Z,5.40
2023-05-06T00:59:15.748Z,3.23
2023-05-06T01:01:42.448Z,3.40
2023-05-06T01:04:09.167Z,3.63
2023-05-06T01:06:50.047Z,4.40
2023-05-06T01:09:24.932Z,7.00
2023-05-06T01:12:06.144Z,3.30
2023-05-06T01:14:41.867Z,6.07
2023-05-06T01:17:12.815Z,3.83
2023-05-06T01:19:46.804Z,3.67
2023-05-06T01:22:13.760Z,3.50
2023-05-06T01:24:42.313Z,3.80
2023-05-06T01:27:10.940Z,3.60
2023-05-06T01:48:55.270Z,4.17
2023-05-06T01:51:28.013Z,3.83
2023-05-06T01:54:01.754Z,3.77
2023-05-06T01:56:34.443Z,3.33
2023-05-06T01:59:07.226Z,5.43
2023-05-06T02:01:39.947Z,3.87
2023-05-06T02:04:12.713Z,3.53
2023-05-06T02:06:45.473Z,3.30
2023-05-06T02:09:18.228Z,3.20
2023-05-06T02:11:50.990Z,3.23
2023-05-06T02:14:23.912Z,2.83
2023-05-06T02:16:56.754Z,2.83
2023-05-06T02:19:29.534Z,4.77
2023-05-06T02:22:02.263Z,3.83
2023-05-06T02:24:35.016Z,3.43
2023-05-06T02:27:07.774Z,5.87
2023-05-06T02:29:40.539Z,2.87
2023-05-06T02:32:13.272Z,2.70
2023-05-06T02:34:46.102Z,4.67
2023-05-06T02:37:19.195Z,4.97
2023-05-06T02:42:29.464Z,3.00
2023-05-06T02:45:02.761Z,3.17
2023-05-06T02:47:35.653Z,3.17
2023-05-06T02:50:08.898Z,3.00
2023-05-06T02:52:41.720Z,3.10
2023-05-06T02:55:14.560Z,3.00
2023-05-06T02:57:47.315Z,3.40
2023-05-06T03:00:20.532Z,4.53
2023-05-06T03:02:53.392Z,3.17
2023-05-06T03:05:26.348Z,3.03
2023-05-06T03:07:59.083Z,5.97
2023-05-06T03:13:09.666Z,4.70
2023-05-06T03:15:36.304Z,3.23
2023-05-06T03:18:03.152Z,3.53
2023-05-06T03:20:29.928Z,3.30
2023-05-06T03:22:56.740Z,4.03
2023-05-06T03:25:23.434Z,3.23
2023-05-06T03:27:50.077Z,3.07
2023-05-06T03:30:16.808Z,5.13
2023-05-06T03:32:43.827Z,2.97
2023-05-06T03:35:11.913Z,3.90
2023-05-06T03:37:38.783Z,3.20
2023-05-06T03:40:06.370Z,3.33
2023-05-06T03:42:33.064Z,2.90
2023-05-06T03:44:59.783Z,3.50
2023-05-06T03:47:26.469Z,3.80
2023-05-06T03:49:53.282Z,3.13
2023-05-06T03:52:20.017Z,3.67
2023-05-06T03:54:46.732Z,3.47
2023-05-06T03:57:13.453Z,4.10
2023-05-06T03:59:40.096Z,3.30
2023-05-06T04:02:06.889Z,3.43
2023-05-06T04:04:34.666Z,4.00
2023-05-06T04:07:02.277Z,3.93
2023-05-06T04:09:28.966Z,5.83
2023-05-06T04:11:56.115Z,4.13
2023-05-06T04:14:22.807Z,5.20
2023-05-06T04:16:49.569Z,3.93
2023-05-06T04:19:17.996Z,3.23
2023-05-06T04:24:23.182Z,3.07
2023-05-06T04:26:49.936Z,6.43
2023-05-06T04:29:16.630Z,3.30
2023-05-06T04:31:43.437Z,5.60
2023-05-06T04:34:11.415Z,4.00
2023-05-06T04:39:10.840Z,4.70
2023-05-06T04:41:38.331Z,4.40
2023-05-06T04:44:05.189Z,4.20
2023-05-06T04:46:31.820Z,4.37
2023-05-06T04:48:58.496Z,5.03
2023-05-06T04:51:25.273Z,4.33
2023-05-06T04:53:52.842Z,4.30
2023-05-06T04:56:19.610Z,3.97
2023-05-06T04:58:46.246Z,5.83
2023-05-06T05:01:12.973Z,4.70
2023-05-06T05:03:39.715Z,4.50
2023-05-06T05:06:06.741Z,3.97
2023-05-06T05:08:33.459Z,6.57
2023-05-06T05:11:00.201Z,5.07
2023-05-06T05:13:26.958Z,4.93
2023-05-06T05:15:56.544Z,4.83
2023-05-06T05:18:23.359Z,5.80
2023-05-06T05:20:50.170Z,4.40
2023-05-06T05:23:16.840Z,6.13
2023-05-06T05:25:43.511Z,3.60
2023-05-06T05:28:10.171Z,3.63
2023-05-06T05:30:36.801Z,3.57
2023-05-06T05:35:35.013Z,3.93
2023-05-06T05:38:02.086Z,4.73
2023-05-06T05:40:28.731Z,4.67
2023-05-06T05:42:55.625Z,3.83
2023-05-06T05:45:22.289Z,3.40
2023-05-06T05:47:49.060Z,3.77
2023-05-06T05:50:15.777Z,3.20
2023-05-06T05:52:42.373Z,4.00
2023-05-06T05:55:09.816Z,4.60
2023-05-06T05:57:37.102Z,3.90
2023-05-06T06:00:06.010Z,3.60
2023-05-06T06:02:34.703Z,3.17
2023-05-06T06:05:01.540Z,4.63
2023-05-06T06:07:28.343Z,3.57
2023-05-06T06:09:55.013Z,3.28
2023-05-06T06:12:21.656Z,3.90
2023-05-06T06:14:48.738Z,4.65
2023-05-06T06:19:51.380Z,4.22
2023-05-06T06:22:18.256Z,5.55
2023-05-06T06:24:44.973Z,3.42
2023-05-06T06:27:11.644Z,2.90
2023-05-06T06:32:09.739Z,2.97
2023-05-06T06:34:36.845Z,5.00
2023-05-06T06:37:03.521Z,3.17
2023-05-06T06:39:30.203Z,4.40
2023-05-06T06:41:58.484Z,5.60
2023-05-06T06:44:25.214Z,4.32
2023-05-06T06:46:51.946Z,5.90
2023-05-06T06:49:18.578Z,4.07
2023-05-06T06:54:23.144Z,3.15
2023-05-06T06:56:50.001Z,3.40
2023-05-06T06:59:16.705Z,3.13
2023-05-06T07:04:21.913Z,3.45
2023-05-06T07:09:21.722Z,3.45
2023-05-06T07:11:48.378Z,4.47
2023-05-06T07:14:15.051Z,5.22
2023-05-06T07:16:42.958Z,7.20
2023-05-06T07:19:11.242Z,4.50
2023-05-06T07:21:37.874Z,5.38
2023-05-06T07:24:04.660Z,4.50
2023-05-06T07:26:31.328Z,4.72
2023-05-06T07:28:58.020Z,5.55
2023-05-06T07:31:24.813Z,4.30
2023-05-06T07:36:29.630Z,3.85
2023-05-06T07:38:56.420Z,7.00
2023-05-06T07:41:23.073Z,5.70
2023-05-06T07:43:49.701Z,5.65
2023-05-06T07:46:16.781Z,8.05
2023-05-06T07:48:43.535Z,5.28
2023-05-06T07:51:10.215Z,5.47
2023-05-06T07:53:38.319Z,4.75
2023-05-06T07:56:05.246Z,4.90
2023-05-06T07:58:32.250Z,4.53
2023-05-06T08:00:59.093Z,5.43
2023-05-06T08:03:26.186Z,4.45
2023-05-06T08:05:53.848Z,4.38
2023-05-06T08:08:21.737Z,4.10
2023-05-06T08:10:48.376Z,4.53
2023-05-06T08:13:15.273Z,3.47
2023-05-06T08:15:41.986Z,3.95
2023-05-06T08:18:18.395Z,3.70
2023-05-06T08:20:48.819Z,3.58
2023-05-06T08:23:15.495Z,4.05
2023-05-06T08:25:42.376Z,3.72
2023-05-06T08:28:09.030Z,3.08
2023-05-06T08:30:35.975Z,2.80
2023-05-06T08:33:02.733Z,4.18
2023-05-06T08:35:29.437Z,2.53
2023-05-06T08:37:56.201Z,2.50
2023-05-06T08:40:24.171Z,2.72
2023-05-06T08:42:51.119Z,2.67
2023-05-06T08:45:18.066Z,3.13
2023-05-06T08:47:45.202Z,2.13
2023-05-06T08:50:12.092Z,2.67
2023-05-06T08:52:39.792Z,3.47
2023-05-06T08:55:07.690Z,2.13
2023-05-06T08:57:34.883Z,2.85
2023-05-06T09:00:01.985Z,2.15
2023-05-06T09:02:29.079Z,6.05
2023-05-06T09:04:57.078Z,2.38
2023-05-06T09:07:24.874Z,2.90
2023-05-06T09:09:51.987Z,3.05
2023-05-06T09:12:18.737Z,2.88
2023-05-06T09:14:46.838Z,2.65
2023-05-06T09:17:24.438Z,2.63
2023-05-06T09:19:53.515Z,2.25
2023-05-06T09:22:22.423Z,2.88
2023-05-06T09:24:56.827Z,1.83
2023-05-06T09:30:07.461Z,2.67
2023-05-06T09:32:36.807Z,2.97
2023-05-06T09:35:06.365Z,2.67
2023-05-06T09:37:33.083Z,2.70
2023-05-06T09:40:01.335Z,1.60
2023-05-06T09:42:31.065Z,3.95
2023-05-06T09:45:02.222Z,2.50
2023-05-06T09:47:34.436Z,3.15
2023-05-06T09:50:03.575Z,1.83
2023-05-06T09:52:31.377Z,2.47
2023-05-06T09:54:58.529Z,1.70
2023-05-06T09:57:26.009Z,2.05
2023-05-06T09:59:54.358Z,1.95
2023-05-06T10:02:23.673Z,1.80
2023-05-06T10:04:51.503Z,2.55
2023-05-06T10:09:54.748Z,1.52
2023-05-06T10:12:21.869Z,4.43
2023-05-06T10:14:48.500Z,1.67
2023-05-06T10:17:18.314Z,2.35
2023-05-06T10:19:52.494Z,1.75
2023-05-06T10:22:31.049Z,1.70
2023-05-06T10:25:06.528Z,1.90
2023-05-06T10:27:37.786Z,2.20
2023-05-06T10:30:05.102Z,1.90
2023-05-06T10:32:33.169Z,1.90
2023-05-06T10:35:09.764Z,1.60
2023-05-06T10:37:38.373Z,2.08
2023-05-06T10:40:05.985Z,2.35
2023-05-06T10:42:38.252Z,3.70
2023-05-06T10:45:06.128Z,3.05
2023-05-06T10:47:57.974Z,2.00
2023-05-06T10:50:26.961Z,1.50
2023-05-06T10:52:59.142Z,2.67
2023-05-06T10:55:28.270Z,2.78
2023-05-06T10:57:57.039Z,1.38
2023-05-06T11:00:24.283Z,1.30
2023-05-06T11:02:56.400Z,1.50
2023-05-06T11:05:24.135Z,1.30
2023-05-06T11:07:52.510Z,2.05
2023-05-06T11:10:34.255Z,1.92
2023-05-06T11:13:20.371Z,1.23
2023-05-06T11:15:47.594Z,1.23
2023-05-06T11:18:34.952Z,1.00
2023-05-06T11:21:02.773Z,1.08
2023-05-06T11:23:50.769Z,3.70
2023-05-06T11:26:17.564Z,1.40
2023-05-06T11:28:46.601Z,2.00
2023-05-06T11:31:14.842Z,1.25
2023-05-06T11:33:47.919Z,2.25
2023-05-06T11:36:17.370Z,1.00
2023-05-06T11:38:52.921Z,1.20
2023-05-06T11:41:20.208Z,2.67
2023-05-06T11:43:50.115Z,1.50
2023-05-06T11:46:19.134Z,1.48
2023-05-06T11:48:46.283Z,1.15
2023-05-06T11:51:12.953Z,1.48
2023-05-06T11:53:39.873Z,2.05
2023-05-06T11:56:07.280Z,1.30
2023-05-06T11:58:34.472Z,0.82
2023-05-06T12:01:04.119Z,1.20
2023-05-06T12:03:31.984Z,1.05
2023-05-06T12:05:59.750Z,0.90
2023-05-06T12:08:33.308Z,1.13
2023-05-06T12:11:02.377Z,2.33
2023-05-06T12:13:29.814Z,0.88
2023-05-06T12:15:59.116Z,1.85
2023-05-06T12:18:26.781Z,3.10
2023-05-06T12:20:55.148Z,0.75
2023-05-06T12:23:22.230Z,1.10
2023-05-06T12:28:37.401Z,1.42
2023-05-06T12:31:21.085Z,0.70
2023-05-06T12:33:51.560Z,1.00
2023-05-06T12:36:19.716Z,1.00
2023-05-06T12:38:57.287Z,1.60
2023-05-06T12:44:36.483Z,1.48
2023-05-06T12:47:07.615Z,0.82
2023-05-06T12:50:01.151Z,0.80
2023-05-06T12:52:30.268Z,1.40
2023-05-06T12:54:57.969Z,1.75
2023-05-06T12:57:24.711Z,1.77
2023-05-06T12:59:51.440Z,0.80
2023-05-06T13:02:18.875Z,1.15
2023-05-06T13:04:47.029Z,0.85
2023-05-06T13:07:13.952Z,1.05
2023-05-06T13:09:40.699Z,1.00
2023-05-06T13:12:07.538Z,0.70
2023-05-06T13:14:34.176Z,0.70
2023-05-06T13:17:07.002Z,0.60
2023-05-06T13:19:33.970Z,0.93
2023-05-06T13:22:01.468Z,0.73
2023-05-06T13:24:28.684Z,0.77
2023-05-06T13:26:57.470Z,0.98
2023-05-06T13:29:24.754Z,0.82
2023-05-06T13:31:51.825Z,1.30
2023-05-06T13:34:18.879Z,1.10
2023-05-06T13:36:46.919Z,0.77
2023-05-06T13:39:13.624Z,0.50
2023-05-06T13:41:40.297Z,1.20
2023-05-06T13:44:06.921Z,1.98
2023-05-06T13:46:33.798Z,1.10
2023-05-06T13:49:00.718Z,0.70
2023-05-06T13:51:30.172Z,1.92
2023-05-06T13:53:56.884Z,0.68
2023-05-06T13:56:23.563Z,0.75
2023-05-06T13:58:50.452Z,2.63
2023-05-06T14:01:17.131Z,0.70
2023-05-06T14:03:43.830Z,1.88
2023-05-06T14:06:10.562Z,0.80
2023-05-06T14:08:37.444Z,0.73
2023-05-06T14:11:04.107Z,0.60
2023-05-06T14:13:32.042Z,0.68
2023-05-06T14:15:59.632Z,0.75
2023-05-06T14:18:27.309Z,1.33
2023-05-06T14:20:54.576Z,0.70
2023-05-06T14:23:21.329Z,0.50
2023-05-06T14:25:48.404Z,0.60
2023-05-06T14:28:15.896Z,0.70
2023-05-06T14:30:43.126Z,0.70
2023-05-06T14:33:10.232Z,1.58
2023-05-06T14:35:40.903Z,1.67
2023-05-06T14:38:07.691Z,0.60
2023-05-06T14:40:36.170Z,2.33
2023-05-06T14:43:03.441Z,0.90
2023-05-06T14:45:30.140Z,0.57
2023-05-06T14:47:57.043Z,0.70
2023-05-06T14:52:54.977Z,2.83
2023-05-06T14:55:21.695Z,0.70
2023-05-06T14:57:48.610Z,0.80
2023-05-06T15:00:17.045Z,0.80
2023-05-06T15:02:43.901Z,1.75
2023-05-06T15:05:12.485Z,1.70
2023-05-06T15:07:39.393Z,1.08
2023-05-06T15:10:06.350Z,1.23
2023-05-06T15:12:33.692Z,0.88
2023-05-06T15:15:00.681Z,1.08
2023-05-06T15:17:27.437Z,0.63
2023-05-06T15:19:54.304Z,0.45
2023-05-06T15:22:20.952Z,0.60
2023-05-06T15:24:47.602Z,2.05
2023-05-06T15:27:15.338Z,0.77
2023-05-06T15:29:42.002Z,1.55
2023-05-06T15:32:08.808Z,0.60
2023-05-06T15:34:36.021Z,4.70
2023-05-06T15:37:02.705Z,0.88
2023-05-06T15:39:29.374Z,1.08
2023-05-06T15:41:59.219Z,1.23
2023-05-06T15:44:27.194Z,1.85
2023-05-06T15:46:53.979Z,1.13
2023-05-06T15:49:48.931Z,0.57
2023-05-06T15:52:07.445Z,1.30
2023-05-06T15:54:37.620Z,0.65
2023-05-06T15:57:07.523Z,0.60
2023-05-06T15:59:34.378Z,0.85
2023-05-06T16:02:26.225Z,0.93
2023-05-06T16:04:47.879Z,0.60
2023-05-06T16:07:15.384Z,0.60
2023-05-06T16:09:42.954Z,0.60
2023-05-06T16:12:10.259Z,4.35
2023-05-06T16:14:37.023Z,0.90
2023-05-06T16:17:03.765Z,0.90
2023-05-06T16:19:35.119Z,0.75
2023-05-06T16:22:02.647Z,0.88
2023-05-06T16:24:29.368Z,0.82
2023-05-06T16:26:56.435Z,1.35
2023-05-06T16:29:23.147Z,1.23
2023-05-06T16:31:49.958Z,1.95
2023-05-06T16:34:16.731Z,3.17
2023-05-06T16:36:43.812Z,2.38
2023-05-06T16:39:10.464Z,2.17
2023-05-06T16:41:37.087Z,0.90
2023-05-06T16:44:03.787Z,1.00
2023-05-06T16:46:30.561Z,1.38
2023-05-06T16:48:57.256Z,0.90
2023-05-06T16:51:24.419Z,0.95
2023-05-06T16:53:51.141Z,1.20
2023-05-06T16:56:18.130Z,1.58
2023-05-06T16:58:44.835Z,1.17
2023-05-06T17:01:11.997Z,1.48
2023-05-06T17:03:38.818Z,1.00
2023-05-06T17:06:05.849Z,1.10
2023-05-06T17:08:36.015Z,0.90
2023-05-06T17:11:06.430Z,1.63
2023-05-06T17:13:33.455Z,3.90
2023-05-06T17:16:00.270Z,1.50
2023-05-06T17:18:26.984Z,1.80
2023-05-06T17:20:56.469Z,2.08
2023-05-06T17:23:24.320Z,2.40
2023-05-06T17:25:51.675Z,1.40
2023-05-06T17:28:18.977Z,3.35
2023-05-06T17:30:46.282Z,2.92
2023-05-06T17:33:13.063Z,2.17
2023-05-06T17:35:39.780Z,1.17
2023-05-06T17:38:06.614Z,1.83
2023-05-06T17:40:33.482Z,1.20
2023-05-06T17:43:00.306Z,1.15
2023-05-06T17:45:28.755Z,2.10
2023-05-06T17:47:56.664Z,1.05
2023-05-06T17:50:23.556Z,2.85
2023-05-06T17:52:52.461Z,2.67
2023-05-06T17:55:21.872Z,2.38
2023-05-06T17:57:48.968Z,1.65
2023-05-06T18:00:16.838Z,3.53
2023-05-06T18:02:44.092Z,1.30
2023-05-06T18:05:11.684Z,2.35
2023-05-06T18:07:38.704Z,1.98
2023-05-06T18:10:06.456Z,2.00
2023-05-06T18:12:33.121Z,1.35
2023-05-06T18:15:00.892Z,5.88
2023-05-06T18:17:27.553Z,2.67
2023-05-06T18:19:54.272Z,3.97
2023-05-06T18:22:20.903Z,7.03
2023-05-06T18:24:47.589Z,3.97
2023-05-06T18:27:14.294Z,5.40
2023-05-06T18:29:41.729Z,4.40
2023-05-06T18:32:08.583Z,3.45
2023-05-06T18:34:35.591Z,2.67
2023-05-06T18:37:02.370Z,2.35
2023-05-06T18:39:28.949Z,5.18
2023-05-06T18:41:55.594Z,2.45
2023-05-06T18:44:22.230Z,2.60
2023-05-06T18:46:48.858Z,2.83
2023-05-06T18:49:15.525Z,3.83
2023-05-06T18:51:42.128Z,2.30
2023-05-06T18:54:08.784Z,4.05
2023-05-06T18:56:36.925Z,2.00
2023-05-06T18:59:03.700Z,2.38
2023-05-06T19:01:30.372Z,2.08
2023-05-06T19:03:57.051Z,2.15
2023-05-06T19:06:23.853Z,2.25
2023-05-06T19:08:50.687Z,2.97
2023-05-06T19:11:21.359Z,2.05
2023-05-06T19:13:48.002Z,2.22
2023-05-06T19:16:14.744Z,2.80
2023-05-06T19:18:41.871Z,2.55
2023-05-06T19:23:43.744Z,3.13
2023-05-06T19:26:13.769Z,1.80
2023-05-06T19:28:40.914Z,2.17
2023-05-06T19:31:09.620Z,2.53
2023-05-06T19:33:39.984Z,2.00
2023-05-06T19:36:07.120Z,5.10
2023-05-06T19:38:34.380Z,2.40
2023-05-06T19:41:01.527Z,2.58
2023-05-06T19:43:28.412Z,2.00
2023-05-06T19:45:55.148Z,1.75
2023-05-06T19:48:23.849Z,2.53
2023-05-06T19:50:51.726Z,3.65
2023-05-06T19:53:18.554Z,2.08
2023-05-06T19:55:45.194Z,2.88
2023-05-06T19:58:14.253Z,2.55
2023-05-06T20:00:40.998Z,2.10
2023-05-06T20:05:42.216Z,3.17
2023-05-06T20:08:11.677Z,2.85
2023-05-06T20:10:38.942Z,2.15
2023-05-06T20:13:06.672Z,3.65
2023-05-06T20:15:33.584Z,2.10
2023-05-06T20:18:00.249Z,2.40
2023-05-06T20:20:34.494Z,4.13
2023-05-06T20:23:04.208Z,2.70
2023-05-06T20:28:03.823Z,3.75
2023-05-06T20:30:30.617Z,2.78
2023-05-06T20:32:57.460Z,3.30
2023-05-06T20:35:24.363Z,2.60
2023-05-06T20:37:50.982Z,3.42
2023-05-06T20:40:17.706Z,4.32
2023-05-06T20:42:44.379Z,3.85
2023-05-06T20:45:11.435Z,2.63
2023-05-06T20:47:38.353Z,2.58
2023-05-06T20:50:05.476Z,8.82
2023-05-06T20:52:34.232Z,2.95
2023-05-06T20:55:01.256Z,4.38
2023-05-06T20:57:28.643Z,2.30
2023-05-06T20:59:56.309Z,3.90
2023-05-06T21:02:23.121Z,5.05
2023-05-06T21:04:49.913Z,6.43
2023-05-06T21:07:16.593Z,6.93
2023-05-06T21:09:43.288Z,3.30
2023-05-06T21:12:09.965Z,4.85
2023-05-06T21:14:36.581Z,2.90
2023-05-06T21:17:03.362Z,3.97
2023-05-06T21:19:30.160Z,3.08
2023-05-06T21:21:56.930Z,6.93
2023-05-06T21:24:23.567Z,3.55
2023-05-06T21:26:51.449Z,3.97
2023-05-06T21:29:18.078Z,3.03
2023-05-06T21:31:44.749Z,2.55
2023-05-06T21:34:11.414Z,4.38
2023-05-06T21:36:38.093Z,4.70
2023-05-06T21:39:09.957Z,4.75
2023-05-06T21:41:36.674Z,2.55
2023-05-06T21:44:05.650Z,3.13
2023-05-06T21:46:33.039Z,2.80
2023-05-06T21:49:00.339Z,4.78
2023-05-06T21:51:28.418Z,4.38
2023-05-06T21:53:55.143Z,8.65
2023-05-06T21:56:22.286Z,4.00
2023-05-06T21:58:49.123Z,2.58
2023-05-06T22:01:16.086Z,7.43
2023-05-06T22:03:43.728Z,5.82
2023-05-06T22:06:10.508Z,3.72
2023-05-06T22:08:37.185Z,3.08
2023-05-06T22:11:03.854Z,3.17
2023-05-06T22:13:31.379Z,3.70
2023-05-06T22:15:58.148Z,3.80
2023-05-06T22:18:25.937Z,2.63
2023-05-06T22:20:56.654Z,5.88
2023-05-06T22:23:24.556Z,2.50
2023-05-06T22:25:54.405Z,5.50
2023-05-06T22:33:30.330Z,2.28
2023-05-06T22:35:57.064Z,2.50
2023-05-06T22:38:23.702Z,3.67
2023-05-06T22:40:50.573Z,3.15
2023-05-06T22:43:17.222Z,3.78
2023-05-06T22:45:43.870Z,3.17
2023-05-06T22:48:11.065Z,3.63
2023-05-06T22:50:38.275Z,2.50
2023-05-06T22:53:14.428Z,5.32
2023-05-06T22:55:42.316Z,5.60
2023-05-06T22:58:09.044Z,2.40
2023-05-06T23:00:35.704Z,2.45
2023-05-06T23:03:03.085Z,3.03
2023-05-06T23:13:05.889Z,2.80
2023-05-06T23:15:32.860Z,2.80
2023-05-06T23:17:59.575Z,2.75
2023-05-06T23:20:26.342Z,2.92
2023-05-06T23:22:53.181Z,3.55
2023-05-06T23:25:20.300Z,4.15
2023-05-06T23:27:47.082Z,2.60
2023-05-06T23:30:13.946Z,3.10
2023-05-06T23:32:40.702Z,2.60
2023-05-06T23:35:07.910Z,2.70
2023-05-06T23:50:30.937Z,3.03
2023-05-06T23:52:57.577Z,4.93
2023-05-06T23:55:26.519Z,2.60
2023-05-06T23:57:53.221Z,2.50
